Aeroporto :
LOGIN :

Iscrizione | Disclaimer

   EN    FR    IT 

 










Sommario :    VFR   VFR Marginale   IFR   IFR Intensivo   IFR Molto Intensivo
Visibilità : 
Base nubi : 
>= 8 km
>= 3000ft
5 / 8 km
1000 / 3000 ft
1500m / 5 km
500 / 1000 ft
800 / 1500m
200 / 500 ft
< 800m
< 200 ft
Simboli :   Temporali  Nebbia  Neve Forte  Precipitazioni Forti  Vento > 20 kt
SIGMETs :   Varie  Temporali  Ghiacco  Turbolenza  Onda orograficha  Ceneri Vulcaniche






- Altitudine del aeroporto : 12 ft
- Codice IATA : BCN


LEBL - Barcelone

ULTIMO METAR :
  • 131430Z 22007KT 9999 FEW035 14/09 Q1007 NOSIG

METARs OBSOLETI :
  • 131400Z 22006KT 9999 FEW030 14/09 Q1007 NOSIG
  • 131330Z 29003KT 9999 FEW030 14/09 Q1007 NOSIG
  • 131230Z 32009KT 9999 FEW030 12/08 Q1007 NOSIG
  • 131200Z 32009KT 9999 FEW030 10/07 Q1007 NOSIG

TAF TAF LEBL
Valido dal 13 a 12 ore il 14 a 12 ore UTC


131100Z 1312/1412 34010KT 9999 SCT030 TX14/1314Z TN07/1406Z
TEMPO 1312/1314 7000 RA BKN020
BECMG 1314/1316 22008KT
BECMG 1319/1321 31006KT



MetMap, La meteo Aeronautica in un colpo d'occhio ! - Copyright ORBIFLY Dicembre 2007 - Disclaimer

ORBIFLY MET'MAP TEAM :

Programmazione e sviluppo : Alexandra Zaïnal
Concezione e sviluppo : Baudouin d'Aumeries
Co-Programmazione e sviluppo : Marc-Olivier Méhu
Supporto tecnico e logistico : Manuel Goepfert
Aiuto per la traduzione : Arnaldo La Scala

Contatto : metmap@orbifly.com




FONTI E CREDITI :

   NOAA